Time;durP1;ratioP1;P1;durP2;ratioP2;P2;SDS_P1;SDS_P2;PMS_P1;PMS_P2;Temp;Humidity;BMP_temperature;BMP_pressure;BME280_temperature;BME280_humidity;BME280_pressure;Samples;Min_cycle;Max_cycle;Signal;HPM_P1;HPM_P2
2023/04/17 00:00:36;;;;;;;38.88;17.00;;;8.20;99.90;;;;;;4847499;29;20052;-81
2023/04/17 00:03:03;;;;;;;35.95;15.77;;;8.20;99.90;;;;;;4861794;29;20120;-81
2023/04/17 00:05:30;;;;;;;34.13;16.88;;;8.20;99.90;;;;;;4877251;29;20045;-81
2023/04/17 00:07:58;;;;;;;37.78;16.00;;;8.20;99.90;;;;;;4862311;29;20128;-82
2023/04/17 00:10:25;;;;;;;28.70;15.43;;;8.20;99.90;;;;;;4862317;29;20049;-81
2023/04/17 00:12:52;;;;;;;35.03;16.70;;;8.20;99.90;;;;;;4862040;29;20057;-82
2023/04/17 00:15:18;;;;;;;31.08;16.23;;;8.20;99.90;;;;;;4873681;29;20042;-82
2023/04/17 00:17:45;;;;;;;32.08;16.45;;;8.20;99.90;;;;;;4859143;29;20129;-82
2023/04/17 00:20:12;;;;;;;29.42;15.77;;;8.20;99.90;;;;;;4858555;29;20178;-82
2023/04/17 00:22:39;;;;;;;36.97;16.50;;;8.20;99.90;;;;;;4861838;29;20042;-82
2023/04/17 00:25:09;;;;;;;34.03;15.50;;;8.20;99.90;;;;;;4873738;29;20487;-82
2023/04/17 00:27:36;;;;;;;32.78;15.77;;;8.20;99.90;;;;;;4859007;29;20529;-82
2023/04/17 00:30:03;;;;;;;36.33;17.52;;;8.20;99.90;;;;;;4874011;29;20094;-82
2023/04/17 00:32:30;;;;;;;35.45;15.50;;;8.20;99.90;;;;;;4861543;29;20800;-82
2023/04/17 00:34:56;;;;;;;33.88;16.30;;;8.20;99.90;;;;;;4877035;29;20186;-82
2023/04/17 00:37:23;;;;;;;34.60;16.23;;;8.10;99.90;;;;;;4846838;29;20057;-82
2023/04/17 00:39:50;;;;;;;37.33;16.88;;;8.20;99.90;;;;;;4846597;29;20133;-81
2023/04/17 00:42:16;;;;;;;33.50;15.52;;;8.10;99.90;;;;;;4846424;29;20410;-82
2023/04/17 00:44:43;;;;;;;31.50;15.52;;;8.10;99.90;;;;;;4846763;29;20396;-82
2023/04/17 00:47:11;;;;;;;36.53;16.23;;;8.10;99.90;;;;;;4861853;29;20132;-82
2023/04/17 00:49:37;;;;;;;34.63;15.98;;;8.10;99.90;;;;;;4861957;29;20219;-82
2023/04/17 00:52:05;;;;;;;29.70;15.38;;;8.10;99.90;;;;;;4861916;29;20178;-82
2023/04/17 00:54:34;;;;;;;31.75;15.45;;;8.10;99.90;;;;;;4876517;29;20435;-82
2023/04/17 00:57:02;;;;;;;29.42;15.88;;;8.10;99.90;;;;;;4876611;29;20045;-82
2023/04/17 00:59:31;;;;;;;42.38;16.55;;;8.10;99.90;;;;;;4861594;29;20436;-81
2023/04/17 01:01:58;;;;;;;35.20;15.70;;;8.10;99.90;;;;;;4876414;29;20136;-82
2023/04/17 01:04:25;;;;;;;38.00;15.30;;;8.10;99.90;;;;;;4858266;29;20041;-82
2023/04/17 01:06:52;;;;;;;36.85;15.43;;;8.10;99.90;;;;;;4858510;29;20399;-82
2023/04/17 01:09:19;;;;;;;33.28;16.98;;;8.10;99.90;;;;;;4843146;29;20491;-82
2023/04/17 01:11:45;;;;;;;38.80;15.38;;;8.10;99.90;;;;;;4843175;29;20042;-81
2023/04/17 01:14:14;;;;;;;35.08;14.95;;;8.00;99.90;;;;;;4857877;29;20046;-81
2023/04/17 01:16:43;;;;;;;32.80;15.85;;;8.00;99.90;;;;;;4891482;29;20098;-81
2023/04/17 01:19:14;;;;;;;31.33;14.68;;;8.00;99.90;;;;;;4858103;29;20463;-81
2023/04/17 01:21:41;;;;;;;32.22;15.52;;;8.00;99.90;;;;;;4858566;29;20050;-82
2023/04/17 01:24:08;;;;;;;33.42;15.05;;;8.00;99.90;;;;;;4859326;29;20060;-82
2023/04/17 01:26:36;;;;;;;40.90;16.13;;;8.00;99.90;;;;;;4861228;29;20136;-82
2023/04/17 01:29:03;;;;;;;32.53;14.82;;;8.00;99.90;;;;;;4860973;29;20144;-81
2023/04/17 01:31:30;;;;;;;40.30;15.57;;;8.00;99.90;;;;;;4876524;29;20511;-82
2023/04/17 01:33:56;;;;;;;38.53;15.27;;;8.00;99.90;;;;;;4861223;29;20426;-82
2023/04/17 01:36:23;;;;;;;37.17;15.38;;;8.00;99.90;;;;;;4875720;29;20045;-82
2023/04/17 01:38:51;;;;;;;35.30;15.05;;;8.00;99.90;;;;;;4855479;29;20037;-81
2023/04/17 01:41:18;;;;;;;35.20;15.63;;;7.90;99.90;;;;;;4864067;29;20048;-82
2023/04/17 01:43:46;;;;;;;35.78;15.65;;;8.00;99.90;;;;;;4864286;29;20046;-81
2023/04/17 01:46:13;;;;;;;35.95;14.90;;;7.90;99.90;;;;;;4894497;29;20789;-82
2023/04/17 01:48:39;;;;;;;35.45;14.85;;;7.90;99.90;;;;;;4864448;29;20049;-82
2023/04/17 01:51:06;;;;;;;27.65;14.27;;;7.90;99.90;;;;;;4864012;29;20105;-81
2023/04/17 01:53:34;;;;;;;31.42;15.10;;;7.90;99.90;;;;;;4864267;29;20049;-82
2023/04/17 01:56:00;;;;;;;35.78;15.20;;;7.90;99.90;;;;;;4879035;29;20061;-81
2023/04/17 01:58:27;;;;;;;37.83;15.43;;;7.90;99.90;;;;;;4863699;29;20396;-82
2023/04/17 02:00:54;;;;;;;33.67;15.18;;;8.00;99.90;;;;;;4879204;29;20495;-82
2023/04/17 02:03:23;;;;;;;43.22;16.98;;;8.00;99.90;;;;;;4878970;29;20128;-82
2023/04/17 02:05:51;;;;;;;37.30;15.13;;;7.90;99.90;;;;;;4864474;29;20163;-81
2023/04/17 02:08:18;;;;;;;32.97;15.27;;;7.90;99.90;;;;;;4878772;29;20062;-82
2023/04/17 02:10:45;;;;;;;36.25;15.48;;;7.90;99.90;;;;;;4863696;29;20045;-82
2023/04/17 02:13:12;;;;;;;36.08;16.88;;;7.90;99.90;;;;;;4860312;29;20084;-82
2023/04/17 02:15:39;;;;;;;35.13;15.50;;;7.90;99.90;;;;;;4863410;29;20057;-82
2023/04/17 02:18:05;;;;;;;35.88;14.48;;;7.90;99.90;;;;;;4894414;29;20526;-82
2023/04/17 02:20:36;;;;;;;37.75;15.43;;;7.80;99.90;;;;;;4848305;29;20088;-82
2023/04/17 02:23:04;;;;;;;34.28;15.85;;;7.80;99.90;;;;;;4863482;29;20045;-82
2023/04/17 02:25:32;;;;;;;30.70;15.05;;;7.80;99.90;;;;;;4848430;29;20503;-82
2023/04/17 02:27:59;;;;;;;37.80;17.85;;;7.80;99.90;;;;;;4894449;29;20092;-82
2023/04/17 02:30:26;;;;;;;37.72;16.70;;;7.70;99.90;;;;;;4863906;29;20109;-82
2023/04/17 02:32:54;;;;;;;38.95;17.00;;;7.70;99.90;;;;;;4863524;29;20517;-82
2023/04/17 02:35:27;;;;;;;38.58;17.75;;;7.70;99.90;;;;;;4893610;29;20128;-82
2023/04/17 02:37:54;;;;;;;42.22;17.92;;;7.70;99.90;;;;;;4878613;29;20041;-82
2023/04/17 02:40:20;;;;;;;45.42;19.23;;;7.70;99.90;;;;;;4863491;29;20390;-82
2023/04/17 02:42:47;;;;;;;43.78;18.58;;;7.60;99.90;;;;;;4863273;29;20045;-82
2023/04/17 02:45:14;;;;;;;42.03;19.83;;;7.60;99.90;;;;;;4878584;29;20415;-82
2023/04/17 02:47:40;;;;;;;48.42;20.77;;;7.60;99.90;;;;;;4893807;29;20101;-82
2023/04/17 02:50:08;;;;;;;39.58;18.60;;;7.60;99.90;;;;;;4863380;29;20097;-82
2023/04/17 02:52:34;;;;;;;47.47;19.95;;;7.60;99.90;;;;;;4863126;29;20045;-81
2023/04/17 02:55:01;;;;;;;41.97;19.67;;;7.60;99.90;;;;;;4877966;29;20066;-82
2023/04/17 02:57:28;;;;;;;43.00;19.92;;;7.60;99.90;;;;;;4847914;29;20491;-82
2023/04/17 02:59:55;;;;;;;39.25;19.90;;;7.50;99.90;;;;;;4848005;29;20042;-82
2023/04/17 03:02:22;;;;;;;44.97;20.20;;;7.50;99.90;;;;;;4878253;29;20052;-82
2023/04/17 03:04:50;;;;;;;49.75;21.77;;;7.50;99.90;;;;;;4878325;29;20045;-82
2023/04/17 03:07:18;;;;;;;48.85;21.98;;;7.50;99.90;;;;;;4862681;29;20052;-82
2023/04/17 03:09:45;;;;;;;48.85;23.30;;;7.50;99.90;;;;;;4878446;29;20422;-82
2023/04/17 03:12:16;;;;;;;54.75;24.77;;;7.50;99.90;;;;;;4878412;29;20136;-82
2023/04/17 03:14:43;;;;;;;45.65;24.20;;;7.50;99.90;;;;;;4877638;29;20160;-82
2023/04/17 03:17:10;;;;;;;47.63;24.27;;;7.50;99.90;;;;;;4893206;29;20749;-81
2023/04/17 03:19:37;;;;;;;48.83;25.27;;;7.60;99.90;;;;;;4878130;29;20041;-82
2023/04/17 03:22:04;;;;;;;47.05;23.77;;;7.50;99.90;;;;;;4859441;29;20042;-82
2023/04/17 03:24:32;;;;;;;55.70;25.23;;;7.60;99.90;;;;;;4859486;29;20053;-81
2023/04/17 03:26:59;;;;;;;51.47;22.90;;;7.60;99.90;;;;;;4874569;29;20042;-82
2023/04/17 03:29:26;;;;;;;48.47;22.55;;;7.60;99.90;;;;;;4874262;29;20042;-81
2023/04/17 03:31:53;;;;;;;52.78;23.33;;;7.60;99.90;;;;;;4859258;29;20513;-81
2023/04/17 03:34:20;;;;;;;45.90;22.13;;;7.60;99.90;;;;;;4874303;29;20034;-82
2023/04/17 03:36:47;;;;;;;44.20;20.83;;;7.70;99.90;;;;;;4859239;29;20053;-81
2023/04/17 03:39:14;;;;;;;44.83;20.75;;;7.70;99.90;;;;;;4877620;29;20041;-82
2023/04/17 03:41:41;;;;;;;50.22;20.80;;;7.70;99.90;;;;;;4877374;29;20097;-82
2023/04/17 03:44:08;;;;;;;47.17;22.25;;;7.70;99.90;;;;;;4892905;29;20042;-82
2023/04/17 03:46:36;;;;;;;50.05;21.50;;;7.80;99.90;;;;;;4877408;29;20045;-82
2023/04/17 03:49:03;;;;;;;55.10;21.80;;;7.80;99.90;;;;;;4877395;29;20042;-82
2023/04/17 03:51:30;;;;;;;54.08;21.20;;;7.80;99.90;;;;;;4892861;29;20118;-82
2023/04/17 03:53:57;;;;;;;52.92;21.40;;;7.80;99.90;;;;;;4877785;29;20053;-82
2023/04/17 03:56:24;;;;;;;53.58;20.70;;;7.80;99.90;;;;;;4877204;29;20053;-82
2023/04/17 03:58:51;;;;;;;56.75;21.52;;;7.80;99.90;;;;;;4861759;29;20045;-82
2023/04/17 04:01:18;;;;;;;49.35;21.35;;;7.80;99.90;;;;;;4862186;29;20563;-82
2023/04/17 04:03:45;;;;;;;57.13;22.30;;;7.80;99.90;;;;;;4877067;29;20097;-82
2023/04/17 04:06:11;;;;;;;60.60;22.60;;;7.80;99.90;;;;;;4862339;29;20085;-82
2023/04/17 04:08:39;;;;;;;53.05;21.90;;;7.80;99.90;;;;;;4876920;29;20104;-81
2023/04/17 04:11:06;;;;;;;50.55;21.60;;;7.70;99.90;;;;;;4862448;29;20053;-82
2023/04/17 04:13:33;;;;;;;51.38;22.67;;;7.70;99.90;;;;;;4846577;29;20105;-81
2023/04/17 04:15:59;;;;;;;54.72;23.95;;;7.70;99.90;;;;;;4862133;29;20048;-82
2023/04/17 04:18:26;;;;;;;56.13;22.50;;;7.70;99.90;;;;;;4861967;29;20048;-82
2023/04/17 04:20:53;;;;;;;57.08;22.98;;;7.70;99.90;;;;;;4861879;29;20048;-82
2023/04/17 04:23:20;;;;;;;79.38;21.88;;;7.70;99.90;;;;;;4862042;29;20136;-81
2023/04/17 04:25:48;;;;;;;58.70;20.40;;;7.70;99.90;;;;;;4861688;29;20053;-82
2023/04/17 04:28:16;;;;;;;49.85;22.00;;;7.70;99.90;;;;;;4862179;29;20052;-82
2023/04/17 04:30:49;;;;;;;74.30;19.88;;;7.70;99.90;;;;;;4861372;29;20518;-81
2023/04/17 04:33:19;;;;;;;59.75;19.50;;;7.70;99.90;;;;;;4862118;29;20045;-81
2023/04/17 04:35:47;;;;;;;50.90;19.02;;;7.60;99.90;;;;;;4860991;29;20108;-82
2023/04/17 04:38:15;;;;;;;70.35;22.48;;;7.60;99.90;;;;;;4861381;29;20085;-82
2023/04/17 04:40:48;;;;;;;45.83;20.05;;;7.60;99.90;;;;;;4891722;29;20503;-82
2023/04/17 04:43:15;;;;;;;59.55;20.13;;;7.60;99.90;;;;;;4876774;29;20052;-82
2023/04/17 04:45:42;;;;;;;44.38;20.10;;;7.60;99.90;;;;;;4845972;29;20045;-82
2023/04/17 04:48:08;;;;;;;51.33;19.60;;;7.60;99.90;;;;;;4861561;29;20049;-82
2023/04/17 04:50:35;;;;;;;53.50;20.60;;;7.60;99.90;;;;;;4860717;29;20049;-82
2023/04/17 04:53:01;;;;;;;43.72;21.00;;;7.60;99.90;;;;;;4861370;29;20049;-81
2023/04/17 04:55:29;;;;;;;46.35;19.48;;;7.60;99.90;;;;;;4875957;29;20058;-81
2023/04/17 04:57:56;;;;;;;45.90;21.45;;;7.60;99.90;;;;;;4875882;29;20566;-81
2023/04/17 05:00:23;;;;;;;46.47;19.52;;;7.60;99.90;;;;;;4860960;29;20041;-82
2023/04/17 05:02:50;;;;;;;40.45;19.55;;;7.70;99.90;;;;;;4877387;29;20100;-82
2023/04/17 05:05:16;;;;;;;42.88;19.52;;;7.70;99.90;;;;;;4861702;29;20439;-82
2023/04/17 05:07:43;;;;;;;38.40;18.70;;;7.70;99.90;;;;;;4861379;29;20053;-81
2023/04/17 05:10:10;;;;;;;40.47;17.65;;;7.70;99.90;;;;;;4878006;29;20050;-82
2023/04/17 05:12:37;;;;;;;34.92;17.63;;;7.80;99.90;;;;;;4861298;29;20050;-82
2023/04/17 05:15:04;;;;;;;36.08;17.70;;;7.80;99.90;;;;;;4846572;29;20052;-82
2023/04/17 05:17:30;;;;;;;40.80;18.35;;;7.80;99.90;;;;;;4831826;29;20045;-81
2023/04/17 05:19:57;;;;;;;35.67;18.52;;;7.80;99.90;;;;;;4846304;29;20042;-82
2023/04/17 05:22:24;;;;;;;37.85;18.67;;;7.90;99.90;;;;;;4833193;29;20505;-82
2023/04/17 05:24:51;;;;;;;38.33;17.67;;;7.90;99.90;;;;;;4853521;29;20384;-82
2023/04/17 05:27:17;;;;;;;46.22;18.95;;;7.90;99.90;;;;;;4879785;29;20052;-82
2023/04/17 05:29:44;;;;;;;31.33;15.90;;;7.90;99.90;;;;;;4849373;29;20038;-82
2023/04/17 05:32:11;;;;;;;30.88;16.70;;;8.00;99.90;;;;;;4879839;29;20038;-82
2023/04/17 05:34:38;;;;;;;31.33;17.45;;;8.00;99.90;;;;;;4879300;29;20528;-82
2023/04/17 05:37:05;;;;;;;33.55;16.73;;;8.00;99.90;;;;;;4864440;29;20124;-82
2023/04/17 05:39:33;;;;;;;26.25;15.43;;;8.00;99.90;;;;;;4879765;29;20049;-82
2023/04/17 05:42:00;;;;;;;26.77;15.50;;;8.10;99.90;;;;;;4879460;29;20048;-81
2023/04/17 05:44:27;;;;;;;25.98;14.52;;;8.00;99.90;;;;;;4860927;29;20041;-82
2023/04/17 05:46:56;;;;;;;29.30;15.15;;;8.10;99.90;;;;;;4845760;29;20060;-82
2023/04/17 05:49:22;;;;;;;28.05;14.90;;;8.10;99.90;;;;;;4831377;29;20563;-82
2023/04/17 05:51:49;;;;;;;22.63;13.32;;;8.20;99.90;;;;;;4845870;29;20095;-81
2023/04/17 05:54:16;;;;;;;26.27;14.15;;;8.20;99.90;;;;;;4845577;29;20045;-82
2023/04/17 05:56:43;;;;;;;24.40;13.98;;;8.20;99.90;;;;;;4845778;29;20140;-82
2023/04/17 05:59:10;;;;;;;23.30;13.75;;;8.20;99.90;;;;;;4846025;29;20053;-81
2023/04/17 06:01:38;;;;;;;22.52;13.38;;;8.20;99.90;;;;;;4860845;29;20098;-81
2023/04/17 06:04:05;;;;;;;23.67;13.27;;;8.20;99.90;;;;;;4845866;29;20042;-81
2023/04/17 06:06:32;;;;;;;22.48;12.38;;;8.30;99.90;;;;;;4860351;29;20057;-81
2023/04/17 06:08:58;;;;;;;21.30;13.07;;;8.30;99.90;;;;;;4830594;29;20133;-82
2023/04/17 06:11:25;;;;;;;23.92;13.05;;;8.30;99.90;;;;;;4845668;29;20041;-81
2023/04/17 06:13:52;;;;;;;23.13;13.00;;;8.30;99.90;;;;;;4830475;29;20101;-82
2023/04/17 06:16:19;;;;;;;22.65;13.30;;;8.40;99.90;;;;;;4860499;29;20476;-82
2023/04/17 06:18:46;;;;;;;21.42;12.98;;;8.50;99.90;;;;;;4860216;29;20124;-82
2023/04/17 06:21:12;;;;;;;20.25;12.88;;;8.50;99.90;;;;;;4845077;29;20046;-82
2023/04/17 06:23:39;;;;;;;21.77;13.35;;;8.50;99.90;;;;;;4845491;29;20046;-82
2023/04/17 06:26:06;;;;;;;23.02;12.68;;;8.60;99.90;;;;;;4830483;29;20045;-82
2023/04/17 06:28:32;;;;;;;24.45;12.65;;;8.60;99.90;;;;;;4860455;29;20045;-81
2023/04/17 06:30:59;;;;;;;21.38;12.70;;;8.60;99.90;;;;;;4860402;29;20049;-82
2023/04/17 06:33:26;;;;;;;21.40;12.70;;;8.70;99.90;;;;;;4830184;29;20093;-82
2023/04/17 06:35:52;;;;;;;26.75;12.98;;;8.70;99.90;;;;;;4859969;29;20140;-82
2023/04/17 06:38:19;;;;;;;23.17;13.07;;;8.70;99.90;;;;;;4893897;29;20042;-82
2023/04/17 06:40:46;;;;;;;22.33;13.07;;;8.80;99.90;;;;;;4878403;29;20042;-82
2023/04/17 06:43:16;;;;;;;24.10;14.07;;;8.80;99.90;;;;;;4887144;29;20100;-81
2023/04/17 06:45:43;;;;;;;21.58;12.82;;;8.90;99.90;;;;;;4891886;29;20071;-82
2023/04/17 06:48:10;;;;;;;22.67;13.52;;;8.90;99.90;;;;;;4866135;29;20038;-82
2023/04/17 06:50:37;;;;;;;23.90;13.07;;;8.90;99.90;;;;;;4860139;29;20058;-81
2023/04/17 06:53:04;;;;;;;21.85;13.00;;;8.90;99.90;;;;;;4859715;29;20053;-82
2023/04/17 06:55:31;;;;;;;28.10;14.15;;;9.00;99.90;;;;;;4860251;29;20054;-82
2023/04/17 06:57:59;;;;;;;26.13;14.93;;;9.00;99.90;;;;;;4864509;29;20058;-82
2023/04/17 07:00:26;;;;;;;23.10;13.10;;;9.10;99.90;;;;;;4878014;29;20101;-82
2023/04/17 07:02:52;;;;;;;22.90;14.15;;;9.10;99.90;;;;;;4878744;29;20088;-82
2023/04/17 07:05:19;;;;;;;24.15;14.75;;;9.10;99.90;;;;;;4863089;29;20052;-82
2023/04/17 07:07:47;;;;;;;28.25;15.23;;;9.20;99.90;;;;;;4877866;29;20050;-82
2023/04/17 07:10:14;;;;;;;26.23;13.85;;;9.20;99.90;;;;;;4863043;29;20118;-82
2023/04/17 07:12:41;;;;;;;24.20;14.02;;;9.30;99.90;;;;;;4863791;29;20074;-83
2023/04/17 07:15:08;;;;;;;26.10;15.23;;;9.30;99.90;;;;;;4863013;29;20503;-82
2023/04/17 07:17:35;;;;;;;28.45;15.52;;;9.40;99.90;;;;;;4863070;29;20033;-83
2023/04/17 07:20:04;;;;;;;25.52;14.80;;;9.50;99.90;;;;;;4833849;29;20109;-83
2023/04/17 07:22:31;;;;;;;24.33;14.50;;;9.50;99.90;;;;;;4844585;29;20046;-83
2023/04/17 07:24:57;;;;;;;24.33;14.05;;;9.60;99.90;;;;;;4844360;29;20046;-82
2023/04/17 07:27:25;;;;;;;25.23;14.63;;;9.60;99.90;;;;;;4844355;29;20049;-83
2023/04/17 07:29:54;;;;;;;27.73;14.77;;;9.70;99.90;;;;;;4868445;29;20122;-83
2023/04/17 07:32:23;;;;;;;25.35;15.25;;;9.70;99.90;;;;;;4847466;29;20052;-83
2023/04/17 07:34:50;;;;;;;25.55;15.30;;;9.80;99.90;;;;;;4892602;29;20046;-83
2023/04/17 07:37:17;;;;;;;28.30;15.23;;;9.90;99.90;;;;;;4877786;29;20052;-83
2023/04/17 07:39:46;;;;;;;23.30;14.30;;;9.90;99.90;;;;;;4861114;29;20068;-82
2023/04/17 07:42:15;;;;;;;28.73;15.48;;;10.00;99.90;;;;;;4862133;29;20045;-83
2023/04/17 07:44:41;;;;;;;24.00;15.40;;;10.10;99.90;;;;;;4877600;29;20041;-83
2023/04/17 07:47:08;;;;;;;23.63;14.02;;;10.10;99.90;;;;;;4868164;29;20071;-83
2023/04/17 07:49:35;;;;;;;31.70;15.10;;;10.20;99.90;;;;;;4880611;29;20040;-82
2023/04/17 07:52:02;;;;;;;26.58;15.57;;;10.30;99.90;;;;;;4896188;29;20109;-83
2023/04/17 07:54:30;;;;;;;24.98;15.02;;;10.50;99.90;;;;;;4880467;29;20064;-82
2023/04/17 07:57:01;;;;;;;23.50;14.30;;;10.60;99.90;;;;;;4911429;29;20521;-82
2023/04/17 07:59:29;;;;;;;21.33;13.60;;;10.60;99.90;;;;;;4881473;29;20041;-83
2023/04/17 08:01:56;;;;;;;21.80;12.95;;;10.70;99.90;;;;;;4865442;29;20041;-83
2023/04/17 08:04:24;;;;;;;28.98;13.40;;;10.80;99.90;;;;;;4865289;29;20078;-83
2023/04/17 08:06:51;;;;;;;23.40;13.63;;;10.80;99.90;;;;;;4895554;29;20128;-82
2023/04/17 08:09:19;;;;;;;23.88;14.52;;;10.90;99.90;;;;;;4880508;29;20806;-83
2023/04/17 08:11:45;;;;;;;22.92;14.43;;;11.00;99.90;;;;;;4880495;29;20091;-83
2023/04/17 08:14:14;;;;;;;21.70;13.25;;;11.10;99.90;;;;;;4880344;29;20498;-83
2023/04/17 08:16:41;;;;;;;21.42;13.77;;;11.20;99.90;;;;;;4851793;29;20053;-82
2023/04/17 08:19:07;;;;;;;21.23;13.82;;;11.30;99.90;;;;;;4876749;29;20746;-83
2023/04/17 08:21:34;;;;;;;21.75;13.68;;;11.30;99.90;;;;;;4877015;29;20045;-82
2023/04/17 08:24:01;;;;;;;22.27;14.50;;;11.50;99.90;;;;;;4861691;29;20053;-83
2023/04/17 08:26:27;;;;;;;24.30;13.88;;;11.50;99.90;;;;;;4862173;29;20578;-82
2023/04/17 08:28:54;;;;;;;20.95;13.07;;;11.60;99.90;;;;;;4877036;29;20125;-82
2023/04/17 08:31:22;;;;;;;22.67;12.77;;;11.70;99.90;;;;;;4861539;29;20578;-83
2023/04/17 08:33:49;;;;;;;21.85;13.85;;;11.80;99.90;;;;;;4877140;29;20041;-83
2023/04/17 08:36:16;;;;;;;23.80;13.18;;;11.90;99.90;;;;;;4861608;29;20122;-83
2023/04/17 08:38:43;;;;;;;18.95;12.27;;;12.00;99.90;;;;;;4861488;29;20049;-82
2023/04/17 08:41:18;;;;;;;19.63;13.07;;;12.10;99.90;;;;;;4861294;29;20044;-83
2023/04/17 08:43:50;;;;;;;23.55;12.25;;;12.20;99.90;;;;;;4877514;29;20052;-83
2023/04/17 08:46:19;;;;;;;20.08;12.38;;;12.30;99.90;;;;;;4880473;29;20490;-83
2023/04/17 08:48:46;;;;;;;20.20;11.63;;;12.40;99.90;;;;;;4865399;29;20494;-83
2023/04/17 08:51:13;;;;;;;17.88;12.25;;;12.60;99.90;;;;;;4880210;29;20056;-83
2023/04/17 08:53:40;;;;;;;19.63;12.00;;;12.70;99.90;;;;;;4850217;29;20045;-83
2023/04/17 08:56:07;;;;;;;19.40;12.43;;;12.80;99.90;;;;;;4864984;29;20049;-83
2023/04/17 08:58:35;;;;;;;22.30;12.48;;;12.90;99.90;;;;;;4865110;29;20113;-83
2023/04/17 09:01:09;;;;;;;21.73;12.43;;;13.10;99.90;;;;;;4895282;29;20407;-82
2023/04/17 09:03:45;;;;;;;18.08;11.45;;;13.10;99.90;;;;;;4880466;29;20044;-83
2023/04/17 09:06:13;;;;;;;18.33;12.05;;;13.30;99.90;;;;;;4880086;29;20487;-83
2023/04/17 09:08:56;;;;;;;19.92;13.00;;;13.40;99.90;;;;;;4864682;29;20045;-83
2023/04/17 09:11:24;;;;;;;18.25;11.77;;;13.50;99.90;;;;;;4880150;29;20470;-83
2023/04/17 09:13:52;;;;;;;17.05;11.60;;;13.60;99.90;;;;;;4895558;29;20057;-83
2023/04/17 09:16:19;;;;;;;17.20;11.77;;;13.60;99.90;;;;;;4879959;29;20096;-83
2023/04/17 09:18:46;;;;;;;18.90;11.55;;;13.60;99.90;;;;;;4864490;29;20076;-83
2023/04/17 09:21:17;;;;;;;16.67;11.77;;;13.80;99.90;;;;;;4879672;29;20117;-83
2023/04/17 09:23:54;;;;;;;18.98;11.95;;;13.90;99.90;;;;;;4880119;29;20045;-83
2023/04/17 09:26:26;;;;;;;18.20;11.65;;;14.00;99.90;;;;;;4879784;29;20045;-82
2023/04/17 09:29:10;;;;;;;18.60;11.45;;;13.90;99.90;;;;;;4879675;29;20060;-83
2023/04/17 09:31:38;;;;;;;15.95;11.00;;;13.90;99.90;;;;;;4895095;29;20495;-83
2023/04/17 09:34:10;;;;;;;18.30;11.90;;;13.80;99.90;;;;;;4879877;29;20140;-83
2023/04/17 09:36:40;;;;;;;18.10;11.52;;;13.80;99.90;;;;;;4879866;29;20049;-83
2023/04/17 09:39:24;;;;;;;18.08;11.77;;;14.00;99.90;;;;;;4864496;29;20042;-83
2023/04/17 09:42:01;;;;;;;17.77;11.40;;;14.10;99.90;;;;;;4879852;29;20042;-83
2023/04/17 09:44:29;;;;;;;16.92;10.95;;;14.30;99.90;;;;;;4879455;29;20498;-83
2023/04/17 09:46:56;;;;;;;19.70;11.60;;;14.50;99.90;;;;;;4895068;29;20049;-83
2023/04/17 09:49:32;;;;;;;18.15;11.88;;;14.60;99.90;;;;;;4863903;29;20057;-82
2023/04/17 09:51:59;;;;;;;18.20;11.82;;;14.70;99.90;;;;;;4864336;29;20081;-83
2023/04/17 09:54:30;;;;;;;19.58;10.95;;;14.80;99.90;;;;;;4879060;29;20088;-83
2023/04/17 09:56:57;;;;;;;17.95;11.50;;;14.90;99.90;;;;;;4894056;29;20076;-82
2023/04/17 09:59:25;;;;;;;19.17;11.77;;;15.00;99.90;;;;;;4863994;29;20041;-83
2023/04/17 10:01:53;;;;;;;19.45;12.80;;;14.90;99.90;;;;;;4879244;29;20491;-83
2023/04/17 10:04:20;;;;;;;19.52;12.57;;;14.90;99.90;;;;;;4879125;29;20640;-83
2023/04/17 10:06:48;;;;;;;16.27;11.23;;;15.00;99.90;;;;;;4879339;29;20507;-83
2023/04/17 10:09:14;;;;;;;16.85;11.35;;;15.00;99.90;;;;;;4878801;29;20521;-83
2023/04/17 10:11:43;;;;;;;17.42;11.32;;;15.10;99.90;;;;;;4860320;29;20045;-84
2023/04/17 10:14:28;;;;;;;16.35;10.95;;;15.00;99.90;;;;;;4875695;29;20050;-83
2023/04/17 10:16:55;;;;;;;17.67;11.35;;;14.90;99.90;;;;;;4865579;29;20046;-84
2023/04/17 10:19:24;;;;;;;16.73;10.93;;;14.80;99.90;;;;;;4860248;29;20053;-83
2023/04/17 10:22:16;;;;;;;16.45;11.23;;;14.90;99.90;;;;;;4860454;29;20049;-82
2023/04/17 10:24:46;;;;;;;16.58;10.98;;;15.00;99.90;;;;;;4877678;29;20050;-83
2023/04/17 10:27:32;;;;;;;16.40;10.82;;;15.10;99.90;;;;;;4880245;29;20048;-83
2023/04/17 10:30:01;;;;;;;18.17;10.75;;;15.00;99.90;;;;;;4884044;29;20102;-83
2023/04/17 10:32:29;;;;;;;20.95;10.70;;;15.00;99.90;;;;;;4897101;29;20097;-83
2023/04/17 10:35:02;;;;;;;20.05;11.55;;;14.80;99.90;;;;;;4881281;29;20487;-81
2023/04/17 10:37:49;;;;;;;17.58;11.27;;;14.70;99.90;;;;;;4878505;29;20042;-81
2023/04/17 10:40:23;;;;;;;16.55;11.07;;;14.80;99.90;;;;;;4893725;29;20129;-81
2023/04/17 10:43:21;;;;;;;19.30;11.10;;;14.90;99.90;;;;;;4878699;29;20380;-81
2023/04/17 10:46:07;;;;;;;18.73;11.27;;;15.00;99.90;;;;;;4878078;29;20056;-81
2023/04/17 10:48:49;;;;;;;18.63;11.13;;;15.00;99.90;;;;;;4878526;29;20120;-81
2023/04/17 10:51:27;;;;;;;18.60;11.68;;;15.10;99.90;;;;;;4859851;29;20396;-80
2023/04/17 10:54:02;;;;;;;19.52;11.38;;;15.00;99.90;;;;;;4859834;29;20084;-81
2023/04/17 10:56:39;;;;;;;17.48;11.10;;;14.90;99.90;;;;;;4874875;29;20042;-81
2023/04/17 10:59:11;;;;;;;17.02;11.27;;;14.90;99.90;;;;;;4859908;29;20049;-81
2023/04/17 11:01:46;;;;;;;18.05;10.70;;;15.10;99.90;;;;;;4859845;29;20542;-82
2023/04/17 11:04:26;;;;;;;18.83;12.27;;;15.10;99.90;;;;;;4859731;29;20045;-81
2023/04/17 11:06:54;;;;;;;16.75;11.90;;;15.20;99.90;;;;;;4859183;29;20136;-81
2023/04/17 11:09:23;;;;;;;16.88;11.80;;;15.30;99.90;;;;;;4859368;29;20525;-81
2023/04/17 11:11:50;;;;;;;17.23;11.07;;;15.30;99.90;;;;;;4874949;29;20094;-81
2023/04/17 11:14:19;;;;;;;21.10;11.43;;;15.30;99.90;;;;;;4844759;29;20045;-81
2023/04/17 11:16:47;;;;;;;21.75;11.52;;;15.30;99.90;;;;;;4877809;29;20100;-81
2023/04/17 11:19:20;;;;;;;15.18;11.32;;;15.40;99.90;;;;;;4894864;29;20041;-82
2023/04/17 11:21:48;;;;;;;19.33;12.50;;;15.40;99.90;;;;;;4877678;29;20540;-81
2023/04/17 11:24:29;;;;;;;18.02;11.73;;;15.40;99.90;;;;;;4866580;29;20046;-81
2023/04/17 11:27:00;;;;;;;18.63;11.88;;;15.20;99.90;;;;;;4859934;29;20045;-81
2023/04/17 11:29:27;;;;;;;18.27;11.90;;;15.30;99.90;;;;;;4859037;29;20068;-82
2023/04/17 11:31:56;;;;;;;16.70;11.45;;;15.30;99.90;;;;;;4844425;29;20058;-81
2023/04/17 11:34:25;;;;;;;19.48;11.45;;;15.40;99.90;;;;;;4874072;29;20087;-81
2023/04/17 11:36:56;;;;;;;16.45;11.50;;;15.60;99.90;;;;;;4877462;29;20133;-81
2023/04/17 11:39:32;;;;;;;19.30;11.82;;;15.60;99.90;;;;;;4862890;29;20052;-81
2023/04/17 11:42:01;;;;;;;;;;;15.60;99.90;;;;;;4863528;29;20037;-81
2023/04/17 11:44:28;;;;;;;16.08;11.85;;;15.60;99.90;;;;;;4877334;29;20321;-81
2023/04/17 11:46:57;;;;;;;16.30;10.68;;;15.60;99.90;;;;;;4877475;29;20052;-81
2023/04/17 11:49:32;;;;;;;17.50;11.20;;;15.60;99.90;;;;;;4847479;29;20137;-81
2023/04/17 11:52:01;;;;;;;18.08;10.63;;;15.70;99.90;;;;;;4877374;29;20101;-82
2023/04/17 11:54:28;;;;;;;21.30;10.88;;;15.80;99.90;;;;;;4877089;29;20061;-81
2023/04/17 11:57:01;;;;;;;15.27;10.80;;;15.80;99.90;;;;;;4882595;29;20034;-81
2023/04/17 11:59:46;;;;;;;18.88;11.02;;;15.90;99.90;;;;;;4895187;29;20041;-81
2023/04/17 12:02:13;;;;;;;15.73;11.18;;;15.80;99.90;;;;;;4880553;29;20085;-80
2023/04/17 12:04:40;;;;;;;14.52;10.48;;;15.90;99.90;;;;;;4874414;29;20038;-82
2023/04/17 12:07:19;;;;;;;18.67;11.10;;;16.00;99.90;;;;;;4862258;29;20402;-81
2023/04/17 12:09:55;;;;;;;17.38;11.38;;;16.10;99.90;;;;;;4877137;29;20056;-81
2023/04/17 12:12:22;;;;;;;18.00;10.93;;;16.20;99.90;;;;;;4862385;29;20495;-81
2023/04/17 12:14:48;;;;;;;19.63;11.75;;;16.20;99.90;;;;;;4862055;29;20049;-82
2023/04/17 12:17:15;;;;;;;15.68;10.43;;;16.20;99.90;;;;;;4858586;29;20069;-81
2023/04/17 12:19:43;;;;;;;16.25;11.93;;;16.00;99.90;;;;;;4858372;29;20046;-82
2023/04/17 12:22:10;;;;;;;17.55;12.32;;;16.10;99.90;;;;;;4861235;29;20354;-82
2023/04/17 12:24:37;;;;;;;19.70;11.57;;;16.00;99.90;;;;;;4863830;29;20132;-82
2023/04/17 12:27:03;;;;;;;17.80;11.70;;;15.90;99.90;;;;;;4880017;29;20045;-81
2023/04/17 12:29:30;;;;;;;18.88;11.80;;;15.80;99.90;;;;;;4864426;29;20048;-81
2023/04/17 12:31:57;;;;;;;18.67;12.27;;;15.70;99.90;;;;;;4895435;29;20109;-80
2023/04/17 12:34:24;;;;;;;17.65;12.15;;;15.70;99.90;;;;;;4864800;29;20055;-80
2023/04/17 12:36:50;;;;;;;17.63;11.23;;;15.70;99.90;;;;;;4864797;29;20482;-82
2023/04/17 12:39:17;;;;;;;16.42;10.15;;;15.80;99.90;;;;;;4877120;29;20037;-81